sensor_id;sensor_type;location;lat;lon;timestamp;pressure;altitude;pressure_sealevel;temperature;humidity
61292;BME280;47165;42.664;23.368;2023-03-19T00:02:05;95558.19;;;4.53;50.05
61292;BME280;47165;42.664;23.368;2023-03-19T00:04:31;95562.41;;;4.57;49.59
61292;BME280;47165;42.664;23.368;2023-03-19T00:06:57;95555.25;;;4.67;49.21
61292;BME280;47165;42.664;23.368;2023-03-19T00:09:22;95556.19;;;4.64;49.26
61292;BME280;47165;42.664;23.368;2023-03-19T00:11:48;95554.28;;;4.71;49.15
61292;BME280;47165;42.664;23.368;2023-03-19T00:14:14;95555.97;;;4.74;49.28
61292;BME280;47165;42.664;23.368;2023-03-19T00:16:40;95547.53;;;4.66;49.37
61292;BME280;47165;42.664;23.368;2023-03-19T00:19:06;95547.28;;;4.75;49.59
61292;BME280;47165;42.664;23.368;2023-03-19T00:21:31;95556.03;;;4.71;49.70
61292;BME280;47165;42.664;23.368;2023-03-19T00:23:57;95550.88;;;4.69;50.21
61292;BME280;47165;42.664;23.368;2023-03-19T00:26:27;95545.41;;;4.47;50.68
61292;BME280;47165;42.664;23.368;2023-03-19T00:28:53;95542.88;;;4.44;50.98
61292;BME280;47165;42.664;23.368;2023-03-19T00:31:19;95544.47;;;4.50;50.84
61292;BME280;47165;42.664;23.368;2023-03-19T00:33:44;95534.16;;;4.48;50.94
61292;BME280;47165;42.664;23.368;2023-03-19T00:36:10;95529.84;;;4.49;51.24
61292;BME280;47165;42.664;23.368;2023-03-19T00:38:37;95535.88;;;4.49;51.49
61292;BME280;47165;42.664;23.368;2023-03-19T00:41:03;95535.88;;;4.49;51.15
61292;BME280;47165;42.664;23.368;2023-03-19T00:43:30;95535.13;;;4.44;51.03
61292;BME280;47165;42.664;23.368;2023-03-19T00:45:56;95531.88;;;4.36;51.12
61292;BME280;47165;42.664;23.368;2023-03-19T00:48:23;95525.06;;;4.33;51.66
61292;BME280;47165;42.664;23.368;2023-03-19T00:50:49;95517.34;;;4.32;51.49
61292;BME280;47165;42.664;23.368;2023-03-19T00:53:15;95528.44;;;4.37;51.38
61292;BME280;47165;42.664;23.368;2023-03-19T00:55:41;95519.03;;;4.33;51.08
61292;BME280;47165;42.664;23.368;2023-03-19T00:58:06;95523.34;;;4.32;51.23
61292;BME280;47165;42.664;23.368;2023-03-19T01:00:33;95523.19;;;4.38;50.67
61292;BME280;47165;42.664;23.368;2023-03-19T01:02:59;95518.09;;;4.37;50.57
61292;BME280;47165;42.664;23.368;2023-03-19T01:05:25;95519.03;;;4.33;50.71
61292;BME280;47165;42.664;23.368;2023-03-19T01:07:51;95512.63;;;4.12;51.24
61292;BME280;47165;42.664;23.368;2023-03-19T01:10:21;95512.69;;;4.10;51.12
61292;BME280;47165;42.664;23.368;2023-03-19T01:12:47;95513.56;;;4.09;51.61
61292;BME280;47165;42.664;23.368;2023-03-19T01:15:12;95513.72;;;4.01;51.48
61292;BME280;47165;42.664;23.368;2023-03-19T01:17:38;95509.31;;;4.07;50.91
61292;BME280;47165;42.664;23.368;2023-03-19T01:20:05;95516.97;;;4.10;51.18
61292;BME280;47165;42.664;23.368;2023-03-19T01:22:36;95513.38;;;4.18;50.87
61292;BME280;47165;42.664;23.368;2023-03-19T01:25:03;95512.53;;;4.16;51.05
61292;BME280;47165;42.664;23.368;2023-03-19T01:27:28;95497.47;;;3.98;50.95
61292;BME280;47165;42.664;23.368;2023-03-19T01:29:54;95504.34;;;3.97;51.58
61292;BME280;47165;42.664;23.368;2023-03-19T01:32:20;95508.69;;;3.97;51.25
61292;BME280;47165;42.664;23.368;2023-03-19T01:34:45;95490.47;;;4.01;51.05
61292;BME280;47165;42.664;23.368;2023-03-19T01:37:11;95500.78;;;4.03;51.13
61292;BME280;47165;42.664;23.368;2023-03-19T01:39:36;95499.91;;;4.04;51.24
61292;BME280;47165;42.664;23.368;2023-03-19T01:42:02;95512.09;;;3.97;51.31
61292;BME280;47165;42.664;23.368;2023-03-19T01:44:35;95505.13;;;4.02;51.55
61292;BME280;47165;42.664;23.368;2023-03-19T01:47:29;95502.50;;;4.04;51.26
61292;BME280;47165;42.664;23.368;2023-03-19T01:49:57;95503.41;;;4.01;51.80
61292;BME280;47165;42.664;23.368;2023-03-19T01:52:25;95514.75;;;3.96;52.14
61292;BME280;47165;42.664;23.368;2023-03-19T01:54:52;95512.16;;;3.96;51.98
61292;BME280;47165;42.664;23.368;2023-03-19T01:57:19;95511.22;;;4.00;52.03
61292;BME280;47165;42.664;23.368;2023-03-19T01:59:52;95517.31;;;3.96;52.18
61292;BME280;47165;42.664;23.368;2023-03-19T02:02:27;95508.81;;;3.91;52.42
61292;BME280;47165;42.664;23.368;2023-03-19T02:05:05;95513.16;;;3.90;52.10
61292;BME280;47165;42.664;23.368;2023-03-19T02:07:32;95521.97;;;3.81;52.54
61292;BME280;47165;42.664;23.368;2023-03-19T02:10:01;95518.44;;;3.84;53.02
61292;BME280;47165;42.664;23.368;2023-03-19T02:12:28;95515.69;;;3.92;52.62
61292;BME280;47165;42.664;23.368;2023-03-19T02:14:53;95511.25;;;3.97;52.60
61292;BME280;47165;42.664;23.368;2023-03-19T02:17:20;95515.16;;;4.15;52.29
61292;BME280;47165;42.664;23.368;2023-03-19T02:22:21;95508.22;;;4.17;51.58
61292;BME280;47165;42.664;23.368;2023-03-19T02:24:58;95508.88;;;4.25;51.47
61292;BME280;47165;42.664;23.368;2023-03-19T02:27:26;95514.22;;;4.17;51.56
61292;BME280;47165;42.664;23.368;2023-03-19T02:29:51;95512.31;;;4.26;51.49
61292;BME280;47165;42.664;23.368;2023-03-19T02:32:17;95515.50;;;4.37;51.32
61292;BME280;47165;42.664;23.368;2023-03-19T02:34:43;95499.03;;;4.41;51.37
61292;BME280;47165;42.664;23.368;2023-03-19T02:42:09;95508.00;;;4.60;50.44
61292;BME280;47165;42.664;23.368;2023-03-19T02:44:35;95512.19;;;4.66;50.63
61292;BME280;47165;42.664;23.368;2023-03-19T02:47:02;95514.06;;;4.59;50.11
61292;BME280;47165;42.664;23.368;2023-03-19T02:49:28;95513.19;;;4.59;50.08
61292;BME280;47165;42.664;23.368;2023-03-19T02:51:53;95505.75;;;4.47;50.06
61292;BME280;47165;42.664;23.368;2023-03-19T02:54:19;95511.88;;;4.42;50.43
61292;BME280;47165;42.664;23.368;2023-03-19T02:56:44;95511.94;;;4.41;50.30
61292;BME280;47165;42.664;23.368;2023-03-19T02:59:10;95514.72;;;4.33;50.77
61292;BME280;47165;42.664;23.368;2023-03-19T03:01:36;95518.97;;;4.36;50.79
61292;BME280;47165;42.664;23.368;2023-03-19T03:04:01;95515.78;;;4.25;51.11
61292;BME280;47165;42.664;23.368;2023-03-19T03:06:27;95517.56;;;4.22;51.22
61292;BME280;47165;42.664;23.368;2023-03-19T03:08:52;95517.66;;;4.18;51.59
61292;BME280;47165;42.664;23.368;2023-03-19T03:11:18;95519.41;;;4.17;51.59
61292;BME280;47165;42.664;23.368;2023-03-19T03:13:44;95523.91;;;4.09;51.78
61292;BME280;47165;42.664;23.368;2023-03-19T03:16:10;95525.84;;;3.99;52.30
61292;BME280;47165;42.664;23.368;2023-03-19T03:18:35;95532.78;;;3.97;52.47
61292;BME280;47165;42.664;23.368;2023-03-19T03:21:01;95539.56;;;4.01;52.15
61292;BME280;47165;42.664;23.368;2023-03-19T03:23:27;95539.84;;;3.89;53.25
61292;BME280;47165;42.664;23.368;2023-03-19T03:25:53;95543.47;;;3.82;53.57
61292;BME280;47165;42.664;23.368;2023-03-19T03:28:18;95541.13;;;3.71;53.57
61292;BME280;47165;42.664;23.368;2023-03-19T03:30:45;95529.19;;;3.66;53.95
61292;BME280;47165;42.664;23.368;2023-03-19T03:33:11;95541.06;;;3.73;53.83
61292;BME280;47165;42.664;23.368;2023-03-19T03:35:37;95537.72;;;3.69;53.85
61292;BME280;47165;42.664;23.368;2023-03-19T03:38:03;95546.16;;;3.77;53.52
61292;BME280;47165;42.664;23.368;2023-03-19T03:40:29;95545.22;;;3.80;53.48
61292;BME280;47165;42.664;23.368;2023-03-19T03:42:55;95549.31;;;3.90;53.10
61292;BME280;47165;42.664;23.368;2023-03-19T03:45:20;95554.38;;;3.95;52.77
61292;BME280;47165;42.664;23.368;2023-03-19T03:47:46;95543.22;;;3.93;52.75
61292;BME280;47165;42.664;23.368;2023-03-19T03:50:11;95550.53;;;4.13;52.33
61292;BME280;47165;42.664;23.368;2023-03-19T03:52:38;95551.41;;;4.12;51.49
61292;BME280;47165;42.664;23.368;2023-03-19T03:55:04;95554.06;;;4.09;51.60
61292;BME280;47165;42.664;23.368;2023-03-19T03:57:29;95554.72;;;4.18;51.54
61292;BME280;47165;42.664;23.368;2023-03-19T03:59:55;95559.13;;;4.13;51.52
61292;BME280;47165;42.664;23.368;2023-03-19T04:02:20;95559.25;;;4.07;51.54
61292;BME280;47165;42.664;23.368;2023-03-19T04:04:46;95551.44;;;4.10;51.74
61292;BME280;47165;42.664;23.368;2023-03-19T04:07:11;95551.47;;;4.09;51.72
61292;BME280;47165;42.664;23.368;2023-03-19T04:09:37;95558.19;;;4.16;51.82
61292;BME280;47165;42.664;23.368;2023-03-19T04:12:03;95548.06;;;4.08;51.64
61292;BME280;47165;42.664;23.368;2023-03-19T04:14:28;95542.06;;;4.06;51.78
61292;BME280;47165;42.664;23.368;2023-03-19T04:16:54;95550.78;;;4.02;52.01
61292;BME280;47165;42.664;23.368;2023-03-19T04:19:19;95547.97;;;4.11;51.90
61292;BME280;47165;42.664;23.368;2023-03-19T04:21:45;95541.81;;;4.17;51.32
61292;BME280;47165;42.664;23.368;2023-03-19T04:24:11;95547.00;;;4.15;51.24
61292;BME280;47165;42.664;23.368;2023-03-19T04:26:37;95545.53;;;4.05;51.65
61292;BME280;47165;42.664;23.368;2023-03-19T04:29:02;95548.19;;;4.02;51.72
61292;BME280;47165;42.664;23.368;2023-03-19T04:31:28;95553.13;;;4.11;51.71
61292;BME280;47165;42.664;23.368;2023-03-19T04:33:53;95548.13;;;4.03;51.99
61292;BME280;47165;42.664;23.368;2023-03-19T04:36:19;95557.63;;;4.03;52.30
61292;BME280;47165;42.664;23.368;2023-03-19T04:38:45;95559.38;;;4.02;52.14
61292;BME280;47165;42.664;23.368;2023-03-19T04:41:12;95562.78;;;4.03;51.91
61292;BME280;47165;42.664;23.368;2023-03-19T04:43:38;95562.94;;;3.97;51.62
61292;BME280;47165;42.664;23.368;2023-03-19T04:46:04;95565.72;;;3.88;52.14
61292;BME280;47165;42.664;23.368;2023-03-19T04:48:31;95562.47;;;3.79;52.35
61292;BME280;47165;42.664;23.368;2023-03-19T04:50:57;95558.03;;;3.85;52.14
61292;BME280;47165;42.664;23.368;2023-03-19T04:53:23;95556.53;;;3.74;52.01
61292;BME280;47165;42.664;23.368;2023-03-19T04:55:49;95556.78;;;3.63;52.41
61292;BME280;47165;42.664;23.368;2023-03-19T04:58:15;95553.75;;;3.43;53.26
61292;BME280;47165;42.664;23.368;2023-03-19T05:00:40;95564.22;;;3.35;53.25
61292;BME280;47165;42.664;23.368;2023-03-19T05:03:06;95558.19;;;3.36;53.31
61292;BME280;47165;42.664;23.368;2023-03-19T05:05:31;95558.94;;;3.41;53.63
61292;BME280;47165;42.664;23.368;2023-03-19T05:07:57;95562.34;;;3.43;53.30
61292;BME280;47165;42.664;23.368;2023-03-19T05:10:23;95563.00;;;3.53;53.01
61292;BME280;47165;42.664;23.368;2023-03-19T05:12:49;95561.16;;;3.58;52.10
61292;BME280;47165;42.664;23.368;2023-03-19T05:15:14;95561.13;;;3.61;52.22
61292;BME280;47165;42.664;23.368;2023-03-19T05:17:40;95555.81;;;3.68;52.26
61292;BME280;47165;42.664;23.368;2023-03-19T05:20:07;95570.03;;;3.87;51.22
61292;BME280;47165;42.664;23.368;2023-03-19T05:22:33;95552.94;;;3.81;51.50
61292;BME280;47165;42.664;23.368;2023-03-19T05:24:59;95563.78;;;3.97;51.32
61292;BME280;47165;42.664;23.368;2023-03-19T05:27:24;95562.88;;;4.00;51.47
61292;BME280;47165;42.664;23.368;2023-03-19T05:29:49;95564.56;;;4.01;51.28
61292;BME280;47165;42.664;23.368;2023-03-19T05:32:15;95566.91;;;4.12;51.18
61292;BME280;47165;42.664;23.368;2023-03-19T05:34:40;95563.19;;;4.23;50.76
61292;BME280;47165;42.664;23.368;2023-03-19T05:37:06;95566.69;;;4.22;50.86
61292;BME280;47165;42.664;23.368;2023-03-19T05:39:32;95565.09;;;4.15;51.44
61292;BME280;47165;42.664;23.368;2023-03-19T05:41:58;95567.91;;;4.06;51.67
61292;BME280;47165;42.664;23.368;2023-03-19T05:44:23;95571.50;;;3.99;52.12
61292;BME280;47165;42.664;23.368;2023-03-19T05:46:49;95566.47;;;3.93;52.47
61292;BME280;47165;42.664;23.368;2023-03-19T05:49:14;95570.13;;;3.82;52.92
61292;BME280;47165;42.664;23.368;2023-03-19T05:51:39;95575.16;;;3.90;52.60
61292;BME280;47165;42.664;23.368;2023-03-19T05:54:05;95576.88;;;3.90;53.04
61292;BME280;47165;42.664;23.368;2023-03-19T05:56:31;95574.31;;;3.90;52.37
61292;BME280;47165;42.664;23.368;2023-03-19T05:58:56;95564.78;;;3.92;52.90
61292;BME280;47165;42.664;23.368;2023-03-19T06:01:22;95569.13;;;3.90;53.07
61292;BME280;47165;42.664;23.368;2023-03-19T06:03:47;95575.06;;;3.93;53.25
61292;BME280;47165;42.664;23.368;2023-03-19T06:06:13;95571.63;;;3.93;52.82
61292;BME280;47165;42.664;23.368;2023-03-19T06:08:38;95565.53;;;3.95;53.10
61292;BME280;47165;42.664;23.368;2023-03-19T06:11:04;95571.47;;;4.00;52.87
61292;BME280;47165;42.664;23.368;2023-03-19T06:13:29;95567.91;;;4.06;53.09
61292;BME280;47165;42.664;23.368;2023-03-19T06:15:55;95555.84;;;4.05;53.01
61292;BME280;47165;42.664;23.368;2023-03-19T06:18:21;95558.34;;;4.10;52.79
61292;BME280;47165;42.664;23.368;2023-03-19T06:20:47;95574.59;;;4.15;53.07
61292;BME280;47165;42.664;23.368;2023-03-19T06:23:13;95575.53;;;4.12;53.26
61292;BME280;47165;42.664;23.368;2023-03-19T06:25:38;95567.81;;;4.09;53.44
61292;BME280;47165;42.664;23.368;2023-03-19T06:28:04;95568.66;;;4.10;53.48
61292;BME280;47165;42.664;23.368;2023-03-19T06:30:31;95574.56;;;4.16;53.07
61292;BME280;47165;42.664;23.368;2023-03-19T06:32:56;95565.91;;;4.17;52.97
61292;BME280;47165;42.664;23.368;2023-03-19T06:35:22;95588.09;;;4.28;53.17
61292;BME280;47165;42.664;23.368;2023-03-19T06:37:47;95579.31;;;4.35;52.77
61292;BME280;47165;42.664;23.368;2023-03-19T06:40:13;95580.94;;;4.39;52.71
61292;BME280;47165;42.664;23.368;2023-03-19T06:42:39;95583.59;;;4.36;52.73
61292;BME280;47165;42.664;23.368;2023-03-19T06:45:05;95584.25;;;4.44;52.45
61292;BME280;47165;42.664;23.368;2023-03-19T06:47:31;95584.22;;;4.46;52.30
61292;BME280;47165;42.664;23.368;2023-03-19T06:49:57;95581.56;;;4.49;52.11
61292;BME280;47165;42.664;23.368;2023-03-19T06:52:23;95587.44;;;4.55;52.12
61292;BME280;47165;42.664;23.368;2023-03-19T06:54:49;95589.06;;;4.59;52.28
61292;BME280;47165;42.664;23.368;2023-03-19T06:57:15;95591.69;;;4.58;52.23
61292;BME280;47165;42.664;23.368;2023-03-19T06:59:40;95592.34;;;4.66;51.93
61292;BME280;47165;42.664;23.368;2023-03-19T07:02:09;95606.91;;;4.70;51.46
61292;BME280;47165;42.664;23.368;2023-03-19T07:04:35;95593.84;;;4.75;51.90
61292;BME280;47165;42.664;23.368;2023-03-19T07:07:00;95593.84;;;4.76;51.66
61292;BME280;47165;42.664;23.368;2023-03-19T07:09:26;95589.38;;;4.81;51.48
61292;BME280;47165;42.664;23.368;2023-03-19T07:11:52;95592.69;;;4.88;51.31
61292;BME280;47165;42.664;23.368;2023-03-19T07:14:17;95590.81;;;4.93;51.38
61292;BME280;47165;42.664;23.368;2023-03-19T07:16:43;95599.31;;;4.98;51.23
61292;BME280;47165;42.664;23.368;2023-03-19T07:19:08;95604.34;;;5.04;50.99
61292;BME280;47165;42.664;23.368;2023-03-19T07:21:34;95604.22;;;5.09;50.77
61292;BME280;47165;42.664;23.368;2023-03-19T07:24:00;95599.97;;;5.07;50.92
61292;BME280;47165;42.664;23.368;2023-03-19T07:26:25;95591.28;;;5.09;51.09
61292;BME280;47165;42.664;23.368;2023-03-19T07:28:51;95585.91;;;5.17;51.07
61292;BME280;47165;42.664;23.368;2023-03-19T07:31:17;95586.47;;;5.27;51.09
61292;BME280;47165;42.664;23.368;2023-03-19T07:33:42;95588.97;;;5.31;50.92
61292;BME280;47165;42.664;23.368;2023-03-19T07:36:08;95586.16;;;5.39;50.85
61292;BME280;47165;42.664;23.368;2023-03-19T07:38:34;95580.97;;;5.39;50.63
61292;BME280;47165;42.664;23.368;2023-03-19T07:40:59;95582.50;;;5.48;50.70
61292;BME280;47165;42.664;23.368;2023-03-19T07:43:24;95581.41;;;5.55;50.57
61292;BME280;47165;42.664;23.368;2023-03-19T07:45:50;95584.72;;;5.60;50.42
61292;BME280;47165;42.664;23.368;2023-03-19T07:48:15;95583.50;;;5.72;50.00
61292;BME280;47165;42.664;23.368;2023-03-19T07:50:41;95585.13;;;5.76;49.58
61292;BME280;47165;42.664;23.368;2023-03-19T07:53:07;95581.50;;;5.81;49.64
61292;BME280;47165;42.664;23.368;2023-03-19T07:55:33;95590.06;;;5.85;49.48
61292;BME280;47165;42.664;23.368;2023-03-19T07:57:58;95580.34;;;5.92;49.49
61292;BME280;47165;42.664;23.368;2023-03-19T08:00:24;95586.34;;;5.94;48.96
61292;BME280;47165;42.664;23.368;2023-03-19T08:02:49;95594.88;;;5.99;49.20
61292;BME280;47165;42.664;23.368;2023-03-19T08:05:15;95586.00;;;6.06;48.96
61292;BME280;47165;42.664;23.368;2023-03-19T08:07:40;95590.31;;;6.07;48.94
61292;BME280;47165;42.664;23.368;2023-03-19T08:10:06;95586.59;;;6.16;48.81
61292;BME280;47165;42.664;23.368;2023-03-19T08:12:33;95588.19;;;6.20;48.59
61292;BME280;47165;42.664;23.368;2023-03-19T08:15:04;95587.84;;;6.31;48.16
61292;BME280;47165;42.664;23.368;2023-03-19T08:17:30;95588.69;;;6.31;47.60
61292;BME280;47165;42.664;23.368;2023-03-19T08:19:58;95591.03;;;6.40;46.98
61292;BME280;47165;42.664;23.368;2023-03-19T08:22:23;95583.88;;;6.47;47.92
61292;BME280;47165;42.664;23.368;2023-03-19T08:24:49;95586.22;;;6.56;48.16
61292;BME280;47165;42.664;23.368;2023-03-19T08:27:14;95581.94;;;6.54;47.49
61292;BME280;47165;42.664;23.368;2023-03-19T08:29:40;95581.50;;;6.68;47.42
61292;BME280;47165;42.664;23.368;2023-03-19T08:32:05;95582.31;;;6.70;46.27
61292;BME280;47165;42.664;23.368;2023-03-19T08:34:31;95582.69;;;6.84;46.88
61292;BME280;47165;42.664;23.368;2023-03-19T08:36:57;95579.50;;;6.76;44.92
61292;BME280;47165;42.664;23.368;2023-03-19T08:39:22;95570.44;;;6.89;45.33
61292;BME280;47165;42.664;23.368;2023-03-19T08:41:48;95571.03;;;6.97;45.63
61292;BME280;47165;42.664;23.368;2023-03-19T08:44:13;95562.25;;;7.01;44.48
61292;BME280;47165;42.664;23.368;2023-03-19T08:46:39;95564.34;;;7.15;45.11
61292;BME280;47165;42.664;23.368;2023-03-19T08:49:04;95567.72;;;7.17;43.85
61292;BME280;47165;42.664;23.368;2023-03-19T08:51:29;95551.78;;;7.28;43.31
61292;BME280;47165;42.664;23.368;2023-03-19T08:53:56;95563.16;;;7.49;44.21
61292;BME280;47165;42.664;23.368;2023-03-19T08:56:21;95550.28;;;7.46;43.53
61292;BME280;47165;42.664;23.368;2023-03-19T08:58:47;95544.47;;;7.63;43.42
61292;BME280;47165;42.664;23.368;2023-03-19T09:01:13;95543.91;;;7.78;42.74
61292;BME280;47165;42.664;23.368;2023-03-19T09:03:40;95539.78;;;7.73;42.33
61292;BME280;47165;42.664;23.368;2023-03-19T09:06:08;95533.72;;;7.96;42.44
61292;BME280;47165;42.664;23.368;2023-03-19T09:08:35;95534.16;;;8.07;41.70
61292;BME280;47165;42.664;23.368;2023-03-19T09:11:02;95526.84;;;8.17;40.67
61292;BME280;47165;42.664;23.368;2023-03-19T09:13:27;95521.91;;;8.33;41.11
61292;BME280;47165;42.664;23.368;2023-03-19T09:15:53;95520.50;;;8.46;40.03
61292;BME280;47165;42.664;23.368;2023-03-19T09:18:19;95517.56;;;8.55;40.18
61292;BME280;47165;42.664;23.368;2023-03-19T09:20:51;95517.09;;;8.66;39.56
61292;BME280;47165;42.664;23.368;2023-03-19T09:23:18;95511.59;;;8.74;39.52
61292;BME280;47165;42.664;23.368;2023-03-19T09:25:43;95522.38;;;8.85;39.61
61292;BME280;47165;42.664;23.368;2023-03-19T09:28:10;95515.00;;;8.96;39.29
61292;BME280;47165;42.664;23.368;2023-03-19T09:30:36;95501.34;;;8.90;38.33
61292;BME280;47165;42.664;23.368;2023-03-19T09:33:03;95517.59;;;9.17;39.21
61292;BME280;47165;42.664;23.368;2023-03-19T09:35:29;95514.28;;;9.32;39.00
61292;BME280;47165;42.664;23.368;2023-03-19T09:37:56;95513.19;;;9.38;38.37
61292;BME280;47165;42.664;23.368;2023-03-19T09:46:03;95508.66;;;9.81;38.34
61292;BME280;47165;42.664;23.368;2023-03-19T09:48:42;95506.03;;;10.00;37.01
61292;BME280;47165;42.664;23.368;2023-03-19T09:51:17;95507.72;;;10.20;38.13
61292;BME280;47165;42.664;23.368;2023-03-19T09:53:53;95501.22;;;10.28;37.35
61292;BME280;47165;42.664;23.368;2023-03-19T09:56:21;95500.19;;;10.33;36.92
61292;BME280;47165;42.664;23.368;2023-03-19T09:58:46;95496.13;;;10.44;36.64
61292;BME280;47165;42.664;23.368;2023-03-19T10:01:38;95490.84;;;10.27;35.24
61292;BME280;47165;42.664;23.368;2023-03-19T10:06:41;95481.25;;;10.64;35.37
61292;BME280;47165;42.664;23.368;2023-03-19T10:14:44;95473.53;;;11.13;35.35
61292;BME280;47165;42.664;23.368;2023-03-19T10:17:16;95470.59;;;11.37;34.76
61292;BME280;47165;42.664;23.368;2023-03-19T10:19:59;95471.06;;;11.61;35.29
61292;BME280;47165;42.664;23.368;2023-03-19T10:22:31;95468.38;;;11.78;33.93
61292;BME280;47165;42.664;23.368;2023-03-19T10:24:58;95454.81;;;11.87;33.48
61292;BME280;47165;42.664;23.368;2023-03-19T10:27:26;95448.25;;;11.96;32.91
61292;BME280;47165;42.664;23.368;2023-03-19T10:29:53;95449.84;;;12.15;33.28
61292;BME280;47165;42.664;23.368;2023-03-19T10:32:28;95436.38;;;12.37;32.60
61292;BME280;47165;42.664;23.368;2023-03-19T10:35:03;95436.16;;;12.56;32.89
61292;BME280;47165;42.664;23.368;2023-03-19T10:37:33;95439.59;;;12.72;32.80
61292;BME280;47165;42.664;23.368;2023-03-19T10:40:00;95436.72;;;12.91;32.46
61292;BME280;47165;42.664;23.368;2023-03-19T10:45:34;95417.84;;;13.15;30.66
61292;BME280;47165;42.664;23.368;2023-03-19T10:48:02;95411.09;;;13.25;29.98
61292;BME280;47165;42.664;23.368;2023-03-19T10:50:34;95403.34;;;13.52;30.64
61292;BME280;47165;42.664;23.368;2023-03-19T10:53:10;95407.13;;;13.89;31.51
61292;BME280;47165;42.664;23.368;2023-03-19T10:55:58;95396.94;;;14.12;29.99
61292;BME280;47165;42.664;23.368;2023-03-19T10:58:27;95392.34;;;14.56;29.68
61292;BME280;47165;42.664;23.368;2023-03-19T11:00:58;95386.22;;;14.95;30.31
61292;BME280;47165;42.664;23.368;2023-03-19T11:03:33;95391.53;;;15.58;28.72
61292;BME280;47165;42.664;23.368;2023-03-19T11:08:29;95368.59;;;15.47;28.50
61292;BME280;47165;42.664;23.368;2023-03-19T11:10:54;95362.75;;;15.80;27.27
61292;BME280;47165;42.664;23.368;2023-03-19T11:13:24;95367.31;;;16.26;27.36
61292;BME280;47165;42.664;23.368;2023-03-19T11:15:54;95351.19;;;16.78;26.72
61292;BME280;47165;42.664;23.368;2023-03-19T11:18:24;95349.84;;;17.19;26.23
61292;BME280;47165;42.664;23.368;2023-03-19T11:20:57;95344.56;;;17.53;25.07
61292;BME280;47165;42.664;23.368;2023-03-19T11:23:27;95349.31;;;17.81;25.22
61292;BME280;47165;42.664;23.368;2023-03-19T11:25:54;95339.19;;;18.41;24.73
61292;BME280;47165;42.664;23.368;2023-03-19T11:28:22;95337.44;;;18.84;23.91
61292;BME280;47165;42.664;23.368;2023-03-19T11:33:53;95320.47;;;19.88;23.10
61292;BME280;47165;42.664;23.368;2023-03-19T11:36:25;95314.94;;;20.11;22.14
61292;BME280;47165;42.664;23.368;2023-03-19T11:44:04;95293.97;;;23.57;18.59
61292;BME280;47165;42.664;23.368;2023-03-19T11:49:23;95288.56;;;24.91;17.74
61292;BME280;47165;42.664;23.368;2023-03-19T11:52:13;95279.34;;;25.74;16.81
61292;BME280;47165;42.664;23.368;2023-03-19T12:00:19;95275.28;;;26.87;14.86
61292;BME280;47165;42.664;23.368;2023-03-19T12:05:32;95261.88;;;27.25;15.55
61292;BME280;47165;42.664;23.368;2023-03-19T12:08:30;95265.84;;;27.74;15.29
61292;BME280;47165;42.664;23.368;2023-03-19T12:24:20;95244.28;;;28.40;14.32
61292;BME280;47165;42.664;23.368;2023-03-19T12:32:20;95228.88;;;28.27;14.67
61292;BME280;47165;42.664;23.368;2023-03-19T12:34:51;95223.31;;;28.72;14.41
61292;BME280;47165;42.664;23.368;2023-03-19T12:37:28;95234.66;;;28.95;14.84
61292;BME280;47165;42.664;23.368;2023-03-19T12:42:36;95222.16;;;28.38;14.72
61292;BME280;47165;42.664;23.368;2023-03-19T12:45:11;95225.50;;;28.18;15.20
61292;BME280;47165;42.664;23.368;2023-03-19T12:47:43;95220.53;;;28.22;14.99
61292;BME280;47165;42.664;23.368;2023-03-19T12:50:12;95216.38;;;27.83;15.63
61292;BME280;47165;42.664;23.368;2023-03-19T12:52:41;95221.50;;;27.93;15.45
61292;BME280;47165;42.664;23.368;2023-03-19T12:57:46;95205.03;;;27.96;14.91
61292;BME280;47165;42.664;23.368;2023-03-19T13:00:25;95206.72;;;28.03;14.68
61292;BME280;47165;42.664;23.368;2023-03-19T13:10:53;95202.50;;;29.08;14.77
61292;BME280;47165;42.664;23.368;2023-03-19T13:22:00;95192.03;;;27.63;14.83
61292;BME280;47165;42.664;23.368;2023-03-19T13:24:27;95193.78;;;28.28;14.97
61292;BME280;47165;42.664;23.368;2023-03-19T13:26:55;95183.28;;;28.34;14.69
61292;BME280;47165;42.664;23.368;2023-03-19T13:29:27;95186.66;;;28.64;14.79
61292;BME280;47165;42.664;23.368;2023-03-19T13:32:02;95179.97;;;28.53;15.31
61292;BME280;47165;42.664;23.368;2023-03-19T13:34:33;95176.06;;;28.84;15.40
61292;BME280;47165;42.664;23.368;2023-03-19T13:37:15;95175.16;;;29.05;14.38
61292;BME280;47165;42.664;23.368;2023-03-19T13:39:42;95175.16;;;29.40;13.92
61292;BME280;47165;42.664;23.368;2023-03-19T13:42:37;95171.28;;;29.14;15.48
61292;BME280;47165;42.664;23.368;2023-03-19T13:45:41;95168.66;;;28.93;14.36
61292;BME280;47165;42.664;23.368;2023-03-19T13:56:21;95150.97;;;28.77;14.25
61292;BME280;47165;42.664;23.368;2023-03-19T13:58:52;95158.75;;;28.93;14.65
61292;BME280;47165;42.664;23.368;2023-03-19T14:01:38;95153.53;;;29.20;14.63
61292;BME280;47165;42.664;23.368;2023-03-19T14:04:14;95145.75;;;29.38;14.04
61292;BME280;47165;42.664;23.368;2023-03-19T14:06:43;95146.19;;;29.00;14.45
61292;BME280;47165;42.664;23.368;2023-03-19T14:09:45;95141.03;;;28.71;14.14
61292;BME280;47165;42.664;23.368;2023-03-19T14:12:20;95151.78;;;28.21;14.76
61292;BME280;47165;42.664;23.368;2023-03-19T14:17:37;95144.13;;;29.02;15.23
61292;BME280;47165;42.664;23.368;2023-03-19T14:26:03;95149.38;;;29.11;14.92
61292;BME280;47165;42.664;23.368;2023-03-19T14:34:11;95138.53;;;28.69;14.24
61292;BME280;47165;42.664;23.368;2023-03-19T14:36:44;95128.97;;;28.10;14.46
61292;BME280;47165;42.664;23.368;2023-03-19T14:39:21;95134.59;;;27.57;15.06
61292;BME280;47165;42.664;23.368;2023-03-19T14:41:50;95125.25;;;26.87;15.55
61292;BME280;47165;42.664;23.368;2023-03-19T14:47:14;95125.78;;;27.12;15.81
61292;BME280;47165;42.664;23.368;2023-03-19T14:49:48;95123.53;;;27.01;15.19
61292;BME280;47165;42.664;23.368;2023-03-19T14:52:42;95124.78;;;26.83;15.18
61292;BME280;47165;42.664;23.368;2023-03-19T14:55:11;95131.50;;;26.26;16.20